Time;durP1;ratioP1;P1;durP2;ratioP2;P2;SDS_P1;SDS_P2;PMS_P1;PMS_P2;Temp;Humidity;BMP_temperature;BMP_pressure;BME280_temperature;BME280_humidity;BME280_pressure;Samples;Min_cycle;Max_cycle;Signal;HPM_P1;HPM_P2
2022/07/23 00:00:53;;;;;;;11.73;6.78;;;;;;;19.39;100.00;96695.34;4947148;28;20347;-73
2022/07/23 00:03:19;;;;;;;10.88;6.53;;;;;;;19.42;100.00;96683.88;4965777;28;20050;-73
2022/07/23 00:05:44;;;;;;;8.98;6.80;;;;;;;19.17;100.00;96685.94;4947251;28;20081;-73
2022/07/23 00:08:10;;;;;;;13.85;7.22;;;;;;;19.11;100.00;96689.03;4965978;28;20081;-73
2022/07/23 00:10:35;;;;;;;10.40;7.38;;;;;;;19.09;100.00;96697.47;4965827;28;20038;-73
2022/07/23 00:13:02;;;;;;;9.02;6.25;;;;;;;19.17;100.00;96698.72;4967005;28;20069;-73
2022/07/23 00:15:28;;;;;;;8.70;6.90;;;;;;;19.15;100.00;96688.16;4965364;28;20038;-73
2022/07/23 00:17:54;;;;;;;10.55;7.25;;;;;;;19.13;100.00;96678.69;4949137;28;20149;-73
2022/07/23 00:20:19;;;;;;;11.82;6.93;;;;;;;19.13;100.00;96682.22;4955810;28;20106;-73
2022/07/23 00:22:49;;;;;;;9.93;6.72;;;;;;;19.15;100.00;96677.31;4964511;28;20478;-73
2022/07/23 00:25:15;;;;;;;9.37;7.10;;;;;;;19.12;100.00;96686.03;4965775;28;20042;-73
2022/07/23 00:27:41;;;;;;;11.30;7.47;;;;;;;19.03;100.00;96685.09;4965326;28;20100;-73
2022/07/23 00:30:07;;;;;;;9.88;7.78;;;;;;;18.95;100.00;96680.38;4945631;28;20271;-73
2022/07/23 00:32:47;;;;;;;10.80;6.88;;;;;;;18.95;100.00;96680.38;4967530;28;20031;-73
2022/07/23 00:35:13;;;;;;;12.40;7.40;;;;;;;18.94;100.00;96676.03;4961961;28;20035;-73
2022/07/23 00:37:38;;;;;;;11.45;7.50;;;;;;;18.89;100.00;96676.13;4953644;28;20026;-73
2022/07/23 00:40:05;;;;;;;11.18;7.20;;;;;;;18.70;100.00;96670.75;4964285;28;20043;-73
2022/07/23 00:42:31;;;;;;;11.60;7.93;;;;;;;18.55;100.00;96666.31;4963864;28;20664;-73
2022/07/23 00:44:57;;;;;;;11.93;7.95;;;;;;;18.42;100.00;96675.19;4964199;28;20253;-73
2022/07/23 00:47:22;;;;;;;12.95;7.78;;;;;;;18.31;100.00;96681.84;4966632;28;20320;-73
2022/07/23 00:49:48;;;;;;;13.93;7.85;;;;;;;18.27;100.00;96678.09;4965408;28;20405;-73
2022/07/23 00:52:13;;;;;;;11.18;8.18;;;;;;;18.23;100.00;96680.59;4946623;28;20058;-73
2022/07/23 00:54:39;;;;;;;10.25;7.82;;;;;;;18.17;100.00;96684.47;4971790;28;20130;-73
2022/07/23 00:57:05;;;;;;;14.32;8.10;;;;;;;18.17;100.00;96697.22;4962953;28;20383;-73
2022/07/23 00:59:30;;;;;;;15.57;9.00;;;;;;;18.14;100.00;96689.69;4967611;28;20493;-73
2022/07/23 01:01:56;;;;;;;13.88;7.80;;;;;;;18.11;100.00;96680.22;4954517;28;20425;-73
2022/07/23 01:04:21;;;;;;;12.38;8.35;;;;;;;18.02;100.00;96684.66;4967968;28;20046;-73
2022/07/23 01:06:47;;;;;;;12.48;7.82;;;;;;;18.00;100.00;96679.56;4964163;28;20086;-73
2022/07/23 01:09:13;;;;;;;15.93;8.52;;;;;;;18.01;100.00;96683.06;4945704;28;20042;-73
2022/07/23 01:11:39;;;;;;;13.45;8.27;;;;;;;17.94;100.00;96666.38;4966124;28;20510;-73
2022/07/23 01:14:14;;;;;;;17.75;9.00;;;;;;;17.91;100.00;96662.34;4965952;28;20097;-73
2022/07/23 01:16:42;;;;;;;14.07;8.55;;;;;;;17.99;100.00;96667.13;4964720;28;20043;-73
2022/07/23 01:19:08;;;;;;;12.30;8.07;;;;;;;18.00;100.00;96659.81;4944224;28;20700;-73
2022/07/23 01:21:40;;;;;;;13.38;8.10;;;;;;;18.06;100.00;96664.06;4948154;28;20130;-73
2022/07/23 01:24:07;;;;;;;12.38;8.82;;;;;;;17.98;100.00;96657.38;4947473;28;20050;-73
2022/07/23 01:26:35;;;;;;;12.88;7.95;;;;;;;18.00;100.00;96657.09;4948509;28;20038;-73
2022/07/23 01:29:02;;;;;;;13.77;8.75;;;;;;;18.01;100.00;96656.78;4963393;28;20166;-73
2022/07/23 01:31:28;;;;;;;15.80;7.75;;;;;;;18.02;100.00;96652.19;4966572;28;20178;-73
2022/07/23 01:33:54;;;;;;;12.52;8.68;;;;;;;17.99;100.00;96652.78;4962238;28;20393;-73
2022/07/23 01:36:19;;;;;;;14.15;8.45;;;;;;;17.91;100.00;96646.09;4947465;28;20038;-73
2022/07/23 01:38:45;;;;;;;13.60;8.63;;;;;;;17.89;100.00;96655.59;4947277;28;20034;-73
2022/07/23 01:41:11;;;;;;;12.25;8.63;;;;;;;17.78;100.00;96669.25;4945773;28;20035;-73
2022/07/23 01:43:36;;;;;;;15.13;8.65;;;;;;;17.76;100.00;96659.84;4931780;28;20046;-73
2022/07/23 01:46:03;;;;;;;13.65;8.57;;;;;;;17.49;100.00;96652.25;4944814;28;20208;-73
2022/07/23 01:48:35;;;;;;;15.43;9.25;;;;;;;17.55;100.00;96668.16;4948058;28;20353;-73
2022/07/23 01:51:19;;;;;;;15.60;8.52;;;;;;;17.57;100.00;96653.53;4950794;28;20071;-73
2022/07/23 01:53:52;;;;;;;12.05;8.15;;;;;;;17.58;100.00;96657.84;4957434;28;20050;-73
2022/07/23 01:56:20;;;;;;;14.40;8.73;;;;;;;17.53;100.00;96659.53;4967836;28;20038;-73
2022/07/23 01:58:47;;;;;;;15.63;8.13;;;;;;;17.52;100.00;96660.63;4963906;28;20078;-73
2022/07/23 02:01:12;;;;;;;14.18;8.93;;;;;;;17.44;100.00;96661.25;4937156;28;20042;-73
2022/07/23 02:03:38;;;;;;;14.23;8.75;;;;;;;17.32;100.00;96646.50;4950710;28;20045;-73
2022/07/23 02:06:03;;;;;;;14.10;8.75;;;;;;;17.24;100.00;96647.94;4953694;28;20039;-73
2022/07/23 02:08:29;;;;;;;14.18;9.25;;;;;;;17.15;100.00;96650.44;4941965;28;20039;-73
2022/07/23 02:10:54;;;;;;;18.38;9.80;;;;;;;17.13;100.00;96649.94;4964262;28;20045;-73
2022/07/23 02:13:20;;;;;;;12.02;7.90;;;;;;;17.18;100.00;96654.47;4950451;28;20092;-73
2022/07/23 02:15:47;;;;;;;13.65;8.82;;;;;;;17.26;100.00;96654.66;4951582;28;20098;-73
2022/07/23 02:18:13;;;;;;;12.35;9.02;;;;;;;17.18;100.00;96655.28;4951349;28;20034;-73
2022/07/23 02:20:39;;;;;;;14.27;9.10;;;;;;;17.26;100.00;96653.84;4970136;28;20054;-73
2022/07/23 02:23:07;;;;;;;14.00;9.55;;;;;;;17.32;100.00;96646.50;4933619;28;20862;-73
2022/07/23 02:25:33;;;;;;;15.98;9.77;;;;;;;17.36;100.00;96647.56;4948459;28;20094;-73
2022/07/23 02:28:00;;;;;;;16.45;9.82;;;;;;;17.39;100.00;96647.75;4955376;28;20818;-72
2022/07/23 02:30:26;;;;;;;14.48;9.50;;;;;;;17.32;100.00;96652.72;4972621;28;20035;-73
2022/07/23 02:32:51;;;;;;;19.42;10.45;;;;;;;17.35;100.00;96640.50;4968814;28;20353;-73
2022/07/23 02:35:17;;;;;;;13.52;8.82;;;;;;;17.34;100.00;96644.31;4967106;28;20092;-73
2022/07/23 02:37:42;;;;;;;15.43;9.10;;;;;;;17.22;100.00;96642.81;4951453;28;20474;-73
2022/07/23 02:40:08;;;;;;;14.40;8.27;;;;;;;17.20;100.00;96650.41;4964669;28;20047;-73
2022/07/23 02:42:37;;;;;;;13.35;8.65;;;;;;;17.12;100.00;96642.91;4958782;28;20035;-73
2022/07/23 02:45:06;;;;;;;13.52;9.65;;;;;;;16.92;100.00;96652.00;4950379;28;20138;-73
2022/07/23 02:47:32;;;;;;;12.88;8.80;;;;;;;16.93;100.00;96648.22;4967922;28;20037;-73
2022/07/23 02:49:59;;;;;;;12.40;8.63;;;;;;;16.99;100.00;96652.50;4949150;28;20048;-73
2022/07/23 02:52:28;;;;;;;15.27;9.85;;;;;;;16.76;100.00;96664.03;4949503;28;20320;-73
2022/07/23 02:54:54;;;;;;;14.95;9.32;;;;;;;16.57;100.00;96657.66;4963811;28;20405;-73
2022/07/23 02:57:19;;;;;;;15.48;8.82;;;;;;;16.59;100.00;96666.31;4947353;28;20070;-73
2022/07/23 02:59:45;;;;;;;15.05;9.15;;;;;;;16.42;100.00;96662.13;4968398;28;20039;-73
2022/07/23 03:02:13;;;;;;;15.77;8.82;;;;;;;16.42;100.00;96664.81;4956667;28;20074;-72
2022/07/23 03:04:42;;;;;;;15.15;9.18;;;;;;;16.29;100.00;96670.03;4967202;28;20084;-73
2022/07/23 03:07:07;;;;;;;15.30;9.32;;;;;;;16.11;100.00;96666.09;4933340;28;20363;-72
2022/07/23 03:09:34;;;;;;;15.93;8.27;;;;;;;16.04;100.00;96662.88;4944828;28;20495;-73
2022/07/23 03:12:00;;;;;;;14.70;9.13;;;;;;;16.04;100.00;96662.88;4953991;28;20070;-73
2022/07/23 03:14:25;;;;;;;14.73;8.63;;;;;;;16.12;100.00;96656.91;4947180;28;20039;-73
2022/07/23 03:16:51;;;;;;;11.77;6.93;;;;;;;16.07;100.00;96656.91;4951803;28;20054;-73
2022/07/23 03:19:19;;;;;;;14.57;6.10;;;;;;;15.98;100.00;96640.50;4945180;28;20035;-73
2022/07/23 03:21:45;;;;;;;10.23;6.03;;;;;;;16.02;100.00;96643.44;4947942;28;20039;-73
2022/07/23 03:24:11;;;;;;;12.02;6.30;;;;;;;15.98;100.00;96653.19;4937259;28;20047;-73
2022/07/23 03:26:37;;;;;;;11.50;5.15;;;;;;;16.00;100.00;96656.41;4949310;28;20457;-73
2022/07/23 03:29:03;;;;;;;11.65;4.90;;;;;;;16.00;100.00;96646.44;4943469;28;20090;-73
2022/07/23 03:31:31;;;;;;;9.05;5.35;;;;;;;16.09;100.00;96652.03;4964225;28;20039;-73
2022/07/23 03:33:57;;;;;;;16.63;5.40;;;;;;;16.09;100.00;96643.94;4945505;28;20047;-73
2022/07/23 03:36:22;;;;;;;9.15;4.70;;;;;;;16.11;100.00;96648.00;4960752;28;20031;-73
2022/07/23 03:38:50;;;;;;;7.70;4.10;;;;;;;16.10;100.00;96645.56;4943114;28;20902;-73
2022/07/23 03:41:19;;;;;;;7.45;4.28;;;;;;;16.09;100.00;96638.53;4947814;28;20039;-73
2022/07/23 03:43:44;;;;;;;8.25;4.60;;;;;;;16.07;100.00;96638.03;4960438;28;20650;-73
2022/07/23 03:46:11;;;;;;;7.55;4.38;;;;;;;16.23;100.00;96634.16;4960355;28;20027;-73
2022/07/23 03:48:37;;;;;;;8.18;3.63;;;;;;;16.30;100.00;96634.63;4960689;28;20564;-73
2022/07/23 03:51:03;;;;;;;6.43;3.80;;;;;;;16.44;100.00;96646.44;4945460;28;20035;-73
2022/07/23 03:53:29;;;;;;;8.65;3.95;;;;;;;16.46;100.00;96643.44;4946110;28;20054;-73
2022/07/23 03:55:54;;;;;;;8.60;3.90;;;;;;;16.62;100.00;96636.84;4946273;28;20491;-73
2022/07/23 03:58:20;;;;;;;8.10;3.55;;;;;;;16.79;100.00;96649.16;4961512;28;20586;-73
2022/07/23 04:00:46;;;;;;;6.25;3.65;;;;;;;16.82;100.00;96654.81;4946476;28;20035;-73
2022/07/23 04:03:11;;;;;;;10.98;3.83;;;;;;;16.90;100.00;96666.91;4944014;28;20047;-73
2022/07/23 04:05:37;;;;;;;6.63;4.13;;;;;;;16.92;100.00;96656.63;4944258;28;20075;-73
2022/07/23 04:08:09;;;;;;;9.75;4.57;;;;;;;16.87;100.00;96662.84;4935454;28;20051;-73
2022/07/23 04:10:39;;;;;;;7.50;4.80;;;;;;;16.75;100.00;96656.22;4931297;28;20066;-73
2022/07/23 04:13:06;;;;;;;8.02;5.22;;;;;;;16.75;100.00;96653.53;4931205;28;20516;-73
2022/07/23 04:15:31;;;;;;;10.40;5.05;;;;;;;16.73;100.00;96661.91;4927922;28;20071;-73
2022/07/23 04:17:57;;;;;;;8.30;4.45;;;;;;;16.87;100.00;96662.84;4925173;28;20137;-73
2022/07/23 04:20:28;;;;;;;8.48;5.30;;;;;;;16.97;100.00;96676.31;4940910;28;20051;-73
2022/07/23 04:23:00;;;;;;;9.18;5.13;;;;;;;16.88;100.00;96669.06;4932913;28;20094;-73
2022/07/23 04:25:27;;;;;;;8.80;5.95;;;;;;;16.89;100.00;96663.41;4940882;28;20047;-73
2022/07/23 04:27:52;;;;;;;14.27;5.80;;;;;;;17.00;100.00;96680.34;4924631;28;20047;-73
2022/07/23 04:30:18;;;;;;;10.15;5.70;;;;;;;16.84;100.00;96679.66;4930437;28;20070;-73
2022/07/23 04:32:44;;;;;;;9.85;5.80;;;;;;;16.85;100.00;96677.75;4941512;28;20042;-73
2022/07/23 04:35:17;;;;;;;8.35;5.70;;;;;;;16.80;100.00;96684.00;4933953;28;20082;-73
2022/07/23 04:37:43;;;;;;;10.85;5.28;;;;;;;16.82;100.00;96678.34;4943441;28;20047;-73
2022/07/23 04:40:10;;;;;;;11.32;5.60;;;;;;;16.76;100.00;96682.97;4940799;28;20150;-73
2022/07/23 04:42:36;;;;;;;12.10;5.28;;;;;;;16.95;100.00;96677.66;4943845;28;20099;-73
2022/07/23 04:45:03;;;;;;;7.53;5.10;;;;;;;17.08;100.00;96681.63;4933497;28;20035;-72
2022/07/23 04:47:30;;;;;;;8.63;5.18;;;;;;;17.23;100.00;96678.75;4910913;28;20071;-73
2022/07/23 04:49:57;;;;;;;8.90;4.80;;;;;;;17.34;100.00;96684.88;4917256;28;20042;-73
2022/07/23 04:52:23;;;;;;;9.07;4.90;;;;;;;17.26;100.00;96683.59;4925373;28;20198;-73
2022/07/23 04:54:49;;;;;;;8.00;4.38;;;;;;;17.19;100.00;96681.22;4942722;28;20245;-73
2022/07/23 04:57:15;;;;;;;9.50;4.70;;;;;;;17.12;100.00;96677.22;4941341;28;20047;-73
2022/07/23 04:59:41;;;;;;;10.02;5.00;;;;;;;16.99;100.00;96678.72;4928499;28;20039;-73
2022/07/23 05:02:08;;;;;;;7.78;5.07;;;;;;;17.02;100.00;96685.44;4923270;28;20082;-73
2022/07/23 05:04:34;;;;;;;7.38;4.93;;;;;;;16.96;100.00;96687.38;4926056;28;21384;-73
2022/07/23 05:07:00;;;;;;;12.07;5.57;;;;;;;16.87;100.00;96684.47;4952212;28;20145;-73
2022/07/23 05:09:26;;;;;;;8.95;5.38;;;;;;;16.74;100.00;96678.94;4963695;28;20512;-73
2022/07/23 05:11:51;;;;;;;7.72;5.10;;;;;;;16.64;100.00;96679.75;4946090;28;20049;-73
2022/07/23 05:14:19;;;;;;;9.73;5.15;;;;;;;16.63;100.00;96689.78;4933827;28;20096;-73
2022/07/23 05:16:45;;;;;;;9.48;5.68;;;;;;;16.66;100.00;96696.53;4947757;28;20043;-73
2022/07/23 05:19:17;;;;;;;12.85;5.63;;;;;;;16.66;100.00;96691.13;4947643;28;20030;-73
2022/07/23 05:21:44;;;;;;;10.60;5.80;;;;;;;16.63;100.00;96689.78;4963418;28;20324;-73
2022/07/23 05:24:10;;;;;;;7.85;5.13;;;;;;;16.66;100.00;96693.81;4949999;28;20472;-73
2022/07/23 05:26:36;;;;;;;9.15;5.10;;;;;;;16.75;100.00;96696.75;4968903;28;20042;-73
2022/07/23 05:29:03;;;;;;;9.13;5.07;;;;;;;16.79;100.00;96693.19;4948785;28;20039;-73
2022/07/23 05:31:28;;;;;;;9.23;5.35;;;;;;;16.84;100.00;96693.16;4969320;28;20382;-73
2022/07/23 05:33:54;;;;;;;12.43;5.82;;;;;;;16.88;100.00;96702.31;4959916;28;20141;-73
2022/07/23 05:36:20;;;;;;;10.48;5.53;;;;;;;16.93;100.00;96696.88;4951890;28;20065;-73
2022/07/23 05:38:52;;;;;;;12.25;5.40;;;;;;;17.02;100.00;96709.78;4960151;28;20053;-73
2022/07/23 05:41:17;;;;;;;11.10;5.22;;;;;;;17.07;100.00;96701.63;4965012;28;20035;-73
2022/07/23 05:43:43;;;;;;;8.23;5.38;;;;;;;17.17;100.00;96707.75;4959752;28;20030;-73
2022/07/23 05:46:10;;;;;;;9.88;5.05;;;;;;;17.30;100.00;96702.78;4950683;28;20314;-73
2022/07/23 05:48:38;;;;;;;7.55;5.00;;;;;;;17.40;100.00;96700.75;4958141;28;20502;-73
2022/07/23 05:51:10;;;;;;;10.32;5.80;;;;;;;17.52;100.00;96705.81;4965854;28;20047;-73
2022/07/23 05:53:35;;;;;;;9.07;5.50;;;;;;;17.62;100.00;96704.88;4952882;28;20501;-73
2022/07/23 05:56:10;;;;;;;14.75;5.40;;;;;;;17.74;100.00;96705.28;4954405;28;20038;-73
2022/07/23 05:58:36;;;;;;;9.90;5.38;;;;;;;17.83;100.00;96702.78;4969548;28;20561;-73
2022/07/23 06:01:02;;;;;;;8.10;4.90;;;;;;;17.81;100.00;96701.16;4950157;28;20045;-73
2022/07/23 06:03:33;;;;;;;7.70;4.95;;;;;;;17.81;100.00;96708.47;4969392;28;20146;-73
2022/07/23 06:05:58;;;;;;;8.82;4.88;;;;;;;17.89;100.00;96712.44;4957797;28;20174;-73
2022/07/23 06:08:24;;;;;;;10.43;5.15;;;;;;;17.88;100.00;96713.53;4969783;28;20129;-73
2022/07/23 06:10:49;;;;;;;10.45;5.03;;;;;;;17.75;100.00;96721.28;4968691;28;20058;-73
2022/07/23 06:13:18;;;;;;;7.88;5.25;;;;;;;17.75;100.00;96715.06;4943926;28;20046;-73
2022/07/23 06:15:44;;;;;;;8.63;5.55;;;;;;;17.81;100.00;96722.00;4966675;28;20042;-73
2022/07/23 06:18:09;;;;;;;10.15;5.93;;;;;;;17.93;100.00;96717.00;4956042;28;20429;-73
2022/07/23 06:20:35;;;;;;;8.63;5.63;;;;;;;17.98;100.00;96716.94;4944669;28;20038;-73
2022/07/23 06:23:00;;;;;;;11.88;5.10;;;;;;;18.01;100.00;96720.97;4968960;28;20034;-73
2022/07/23 06:25:27;;;;;;;10.55;5.40;;;;;;;18.09;100.00;96725.75;4949470;28;20070;-74
2022/07/23 06:27:53;;;;;;;11.23;6.05;;;;;;;18.19;100.00;96722.09;4969282;28;20129;-73
2022/07/23 06:30:18;;;;;;;8.35;5.30;;;;;;;18.19;100.00;96728.31;4968824;28;20274;-73
2022/07/23 06:32:45;;;;;;;9.07;5.18;;;;;;;18.22;100.00;96743.19;4970333;28;20034;-73
2022/07/23 06:35:11;;;;;;;9.98;5.78;;;;;;;18.27;100.00;96740.41;4949818;28;20508;-73
2022/07/23 06:37:36;;;;;;;6.78;4.88;;;;;;;18.40;100.00;96745.13;4967816;28;20060;-73
2022/07/23 06:40:03;;;;;;;10.55;5.15;;;;;;;18.44;100.00;96740.72;4966261;28;20038;-73
2022/07/23 06:42:29;;;;;;;10.00;5.13;;;;;;;18.55;100.00;96754.94;4969806;28;20518;-73
2022/07/23 06:45:00;;;;;;;8.00;5.03;;;;;;;18.49;100.00;96743.38;4949175;28;20046;-73
2022/07/23 06:47:27;;;;;;;10.77;5.97;;;;;;;18.38;100.00;96750.03;4956418;28;20614;-73
2022/07/23 06:49:53;;;;;;;9.27;5.75;;;;;;;18.46;100.00;96752.09;4960965;28;20046;-73
2022/07/23 06:52:18;;;;;;;9.13;4.97;;;;;;;18.54;100.00;96759.56;4965368;28;20441;-73
2022/07/23 06:54:44;;;;;;;9.73;5.70;;;;;;;18.56;100.00;96753.84;4969054;28;20113;-73
2022/07/23 06:57:09;;;;;;;9.30;5.18;;;;;;;18.70;100.00;96749.34;4949791;28;20039;-73
2022/07/23 06:59:38;;;;;;;10.27;5.32;;;;;;;18.70;100.00;96756.66;4966858;28;20177;-73
2022/07/23 07:02:04;;;;;;;8.77;5.63;;;;;;;18.63;100.00;96768.63;4952977;28;20601;-73
2022/07/23 07:04:29;;;;;;;10.13;5.70;;;;;;;18.43;100.00;96766.19;4955127;28;20073;-73
2022/07/23 07:06:55;;;;;;;9.73;5.47;;;;;;;18.29;100.00;96763.41;4971640;28;20470;-73
2022/07/23 07:09:20;;;;;;;13.55;6.07;;;;;;;18.24;100.00;96760.75;4968524;28;20035;-73
2022/07/23 07:11:46;;;;;;;8.93;5.57;;;;;;;18.17;100.00;96770.31;4967354;28;20394;-73
2022/07/23 07:14:11;;;;;;;9.40;5.63;;;;;;;18.07;100.00;96779.38;4968689;28;20080;-73
2022/07/23 07:16:37;;;;;;;10.38;6.18;;;;;;;17.97;100.00;96769.44;4969651;28;20316;-73
2022/07/23 07:19:02;;;;;;;12.18;7.72;;;;;;;17.98;100.00;96773.00;4967301;28;20384;-73
2022/07/23 07:21:28;;;;;;;10.93;6.00;;;;;;;18.00;100.00;96787.03;4969857;28;20479;-73
2022/07/23 07:23:53;;;;;;;9.70;5.88;;;;;;;17.93;100.00;96784.69;4965719;28;20046;-73
2022/07/23 07:26:21;;;;;;;10.93;6.03;;;;;;;17.87;100.00;96780.41;4968937;28;20039;-73
2022/07/23 07:28:46;;;;;;;10.40;6.15;;;;;;;17.96;100.00;96789.50;4968968;28;20093;-73
2022/07/23 07:31:12;;;;;;;13.52;6.70;;;;;;;17.87;100.00;96793.94;4968690;28;20066;-73
2022/07/23 07:33:37;;;;;;;13.23;6.70;;;;;;;17.88;100.00;96786.63;4966355;28;20228;-73
2022/07/23 07:36:04;;;;;;;10.65;6.40;;;;;;;18.01;100.00;96791.38;4967980;28;20794;-73
2022/07/23 07:38:29;;;;;;;9.68;6.47;;;;;;;18.03;100.00;96789.16;4967429;28;20045;-73
2022/07/23 07:40:55;;;;;;;12.82;7.00;;;;;;;18.09;100.00;96799.66;4967751;28;20046;-74
2022/07/23 07:43:20;;;;;;;10.60;5.93;;;;;;;18.30;100.00;96791.31;4965048;28;20391;-74
2022/07/23 07:45:46;;;;;;;10.68;6.95;;;;;;;18.44;100.00;96800.31;4969194;28;20588;-74
2022/07/23 07:48:12;;;;;;;10.20;6.85;;;;;;;18.45;100.00;96799.25;4945418;28;20050;-73
2022/07/23 07:50:37;;;;;;;11.30;6.15;;;;;;;18.51;100.00;96803.47;4968518;28;20275;-73
2022/07/23 07:53:03;;;;;;;9.95;6.32;;;;;;;18.57;100.00;96806.94;4948623;28;20038;-73
2022/07/23 07:55:28;;;;;;;13.20;6.75;;;;;;;18.58;100.00;96808.53;4968277;28;20046;-73
2022/07/23 07:57:54;;;;;;;10.45;6.78;;;;;;;18.71;100.00;96809.78;4965531;28;20058;-73
2022/07/23 08:00:20;;;;;;;11.40;5.80;;;;;;;18.78;100.00;96816.44;4969241;28;20410;-73
2022/07/23 08:02:48;;;;;;;10.75;6.53;;;;;;;18.68;100.00;96811.19;4966048;28;20601;-73
2022/07/23 08:05:14;;;;;;;10.32;6.95;;;;;;;18.75;100.00;96816.22;4965662;28;20328;-74
2022/07/23 08:07:40;;;;;;;11.57;6.20;;;;;;;18.87;100.00;96822.00;4934980;28;20051;-73
2022/07/23 08:10:09;;;;;;;11.27;6.88;;;;;;;18.87;100.00;96825.53;4928284;28;20453;-73
2022/07/23 08:12:44;;;;;;;10.32;6.72;;;;;;;18.96;100.00;96825.69;4928550;28;20253;-73
2022/07/23 08:15:11;;;;;;;10.73;6.65;;;;;;;19.04;100.00;96813.38;4929833;28;20261;-75
2022/07/23 08:17:37;;;;;;;9.13;6.32;;;;;;;19.12;100.00;96826.25;4916022;28;20039;-73
2022/07/23 08:20:05;;;;;;;9.32;6.43;;;;;;;19.20;100.00;96829.09;4933147;28;20047;-73
2022/07/23 08:22:42;;;;;;;11.60;6.80;;;;;;;19.16;100.00;96822.69;4934292;28;20039;-73
2022/07/23 08:25:09;;;;;;;9.35;5.85;;;;;;;19.30;100.00;96828.16;4928349;28;20062;-73
2022/07/23 08:27:34;;;;;;;11.32;6.30;;;;;;;19.37;100.00;96825.88;4926577;28;20509;-73
2022/07/23 08:30:00;;;;;;;10.88;6.45;;;;;;;19.41;100.00;96828.81;4944025;28;20423;-73
2022/07/23 08:32:25;;;;;;;14.52;6.22;;;;;;;19.51;100.00;96825.91;4928441;28;20050;-73
2022/07/23 08:34:51;;;;;;;9.88;5.43;;;;;;;19.57;100.00;96824.75;4929992;28;21147;-74
2022/07/23 08:37:16;;;;;;;11.40;6.22;;;;;;;19.55;100.00;96824.25;4917936;28;20058;-74
2022/07/23 08:39:42;;;;;;;10.00;6.25;;;;;;;19.66;100.00;96825.69;4927236;28;20717;-73
2022/07/23 08:42:07;;;;;;;10.05;6.15;;;;;;;19.87;100.00;96828.06;4927393;28;20039;-73
2022/07/23 08:44:35;;;;;;;8.90;5.13;;;;;;;20.02;100.00;96830.50;4929981;28;20047;-75
2022/07/23 08:47:01;;;;;;;12.68;5.68;;;;;;;20.10;100.00;96834.44;4928494;28;20555;-73
2022/07/23 08:49:29;;;;;;;10.73;6.20;;;;;;;20.11;100.00;96833.31;4927080;28;20135;-73
2022/07/23 08:51:57;;;;;;;11.63;5.88;;;;;;;20.19;100.00;96838.06;4929391;28;20815;-74
2022/07/23 08:54:22;;;;;;;8.75;5.70;;;;;;;20.30;100.00;96828.59;4926093;28;20378;-74
2022/07/23 08:56:48;;;;;;;12.32;5.75;;;;;;;20.38;100.00;96832.53;4929055;28;20518;-73
2022/07/23 08:59:14;;;;;;;9.02;5.35;;;;;;;20.48;100.00;96827.75;4927542;28;20039;-73
2022/07/23 09:01:40;;;;;;;10.68;5.80;;;;;;;20.55;100.00;96841.72;4926904;28;20066;-74
2022/07/23 09:04:05;;;;;;;8.00;5.30;;;;;;;20.55;100.00;96836.28;4926212;28;20479;-73
2022/07/23 09:06:31;;;;;;;10.25;5.18;;;;;;;20.71;100.00;96835.97;4938120;28;20174;-74
2022/07/23 09:08:56;;;;;;;8.82;4.97;;;;;;;20.79;100.00;96836.06;4967352;28;20047;-73
2022/07/23 09:11:22;;;;;;;8.55;5.20;;;;;;;20.79;100.00;96832.53;4971784;28;20062;-74
2022/07/23 09:13:53;;;;;;;7.97;5.20;;;;;;;20.74;100.00;96843.50;4959063;28;20042;-74
2022/07/23 09:16:19;;;;;;;9.00;5.30;;;;;;;20.61;100.00;96839.69;4949387;28;20126;-74
2022/07/23 09:18:49;;;;;;;6.55;4.45;;;;;;;20.57;100.00;96839.50;4942327;28;20176;-74
2022/07/23 09:21:20;;;;;;;6.23;4.30;;;;;;;20.53;100.00;96837.69;4964953;28;20049;-74
2022/07/23 09:23:49;;;;;;;8.52;4.25;;;;;;;20.63;100.00;96842.94;4968847;28;20488;-74
2022/07/23 09:26:24;;;;;;;6.95;4.38;;;;;;;20.76;100.00;96844.81;4966817;28;20065;-74
2022/07/23 09:28:57;;;;;;;7.05;3.67;;;;;;;20.93;100.00;96846.09;4967137;28;20556;-74
2022/07/23 09:31:24;;;;;;;6.97;4.15;;;;;;;21.12;100.00;96849.47;4967141;28;20350;-74
2022/07/23 09:33:50;;;;;;;11.43;4.28;;;;;;;21.31;100.00;96839.25;4967673;28;20066;-74
2022/07/23 09:36:27;;;;;;;7.00;4.22;;;;;;;21.30;100.00;96842.28;4967190;28;20046;-74
2022/07/23 09:38:53;;;;;;;5.97;3.85;;;;;;;21.15;100.00;96846.13;4966289;28;20042;-74
2022/07/23 09:41:18;;;;;;;7.45;4.57;;;;;;;21.35;100.00;96845.72;4967062;28;20587;-74
2022/07/23 09:43:44;;;;;;;9.30;3.72;;;;;;;21.53;100.00;96843.91;4966069;28;20041;-75
2022/07/23 09:46:26;;;;;;;6.80;3.45;;;;;;;21.85;100.00;96850.22;4969288;28;20043;-75
2022/07/23 09:48:52;;;;;;;6.38;3.38;;;;;;;21.99;100.00;96848.22;4967767;28;20050;-75
2022/07/23 09:53:57;;;;;;;7.20;3.25;;;;;;;22.00;99.88;96847.09;4952053;28;20313;-75
2022/07/23 09:56:23;;;;;;;6.47;2.90;;;;;;;22.00;98.08;96840.84;4957441;28;20396;-75
2022/07/23 09:59:02;;;;;;;4.10;2.42;;;;;;;22.12;94.10;96844.63;4965783;28;20045;-75
2022/07/23 10:01:28;;;;;;;5.55;2.50;;;;;;;22.34;93.33;96841.06;4966437;28;20046;-73
2022/07/23 10:03:54;;;;;;;5.75;3.05;;;;;;;22.60;93.71;96843.84;4967699;28;20042;-73
2022/07/23 10:06:42;;;;;;;6.35;3.25;;;;;;;22.60;97.05;96837.59;4967466;28;20109;-73
2022/07/23 10:09:36;;;;;;;4.07;2.53;;;;;;;22.87;89.18;96850.19;4938914;28;20590;-72
2022/07/23 10:14:58;;;;;;;6.07;2.83;;;;;;;23.01;89.26;96853.59;4952610;28;20361;-73
2022/07/23 10:17:24;;;;;;;5.60;3.15;;;;;;;23.14;93.60;96851.88;4969257;28;20042;-74
2022/07/23 10:19:50;;;;;;;5.20;2.92;;;;;;;23.25;87.03;96850.41;4972182;28;20046;-73
2022/07/23 10:22:22;;;;;;;5.45;2.75;;;;;;;23.28;87.12;96841.59;4952129;28;20043;-74
2022/07/23 10:25:03;;;;;;;6.47;2.80;;;;;;;23.43;88.33;96838.38;4971345;28;20279;-73
2022/07/23 10:27:49;;;;;;;4.50;2.60;;;;;;;23.57;87.40;96844.47;4952682;28;20089;-73
2022/07/23 10:30:25;;;;;;;4.32;2.70;;;;;;;23.66;85.01;96840.94;4969097;28;20038;-74
2022/07/23 10:33:17;;;;;;;6.10;2.72;;;;;;;23.77;84.34;96836.75;4970733;28;20046;-73
2022/07/23 10:36:01;;;;;;;4.68;2.70;;;;;;;23.62;81.09;96827.94;4971985;28;20077;-73
2022/07/23 10:38:41;;;;;;;4.68;2.90;;;;;;;23.52;79.52;96830.19;4977764;28;20290;-74
2022/07/23 10:41:07;;;;;;;4.25;2.60;;;;;;;23.84;80.74;96826.16;4978497;28;20097;-75
2022/07/23 10:43:32;;;;;;;4.68;2.85;;;;;;;23.93;85.23;96828.84;4976577;28;20544;-75
2022/07/23 10:46:58;;;;;;;5.40;2.40;;;;;;;23.99;78.54;96822.09;4978850;28;20039;-73
2022/07/23 10:49:26;;;;;;;5.40;2.60;;;;;;;24.15;81.50;96826.69;4932543;28;20279;-73
2022/07/23 10:52:13;;;;;;;6.10;2.78;;;;;;;24.52;73.11;96813.38;4922709;28;20079;-74
2022/07/23 10:54:52;;;;;;;4.20;2.42;;;;;;;24.67;77.04;96809.28;4962887;28;20057;-73
2022/07/23 10:57:21;;;;;;;4.88;2.63;;;;;;;25.09;79.59;96821.09;4969340;28;20290;-74
2022/07/23 11:00:11;;;;;;;5.00;2.72;;;;;;;24.74;75.97;96818.53;4970209;28;20097;-74
2022/07/23 11:02:41;;;;;;;4.70;2.50;;;;;;;25.19;80.77;96820.69;4967558;28;20042;-75
2022/07/23 11:05:13;;;;;;;6.37;2.60;;;;;;;25.66;73.27;96823.19;4943156;28;20125;-74
2022/07/23 11:08:03;;;;;;;4.15;2.70;;;;;;;25.50;69.97;96824.94;4969878;28;20050;-74
2022/07/23 11:10:35;;;;;;;4.88;2.95;;;;;;;25.48;73.77;96816.28;4972091;28;20039;-74
2022/07/23 11:13:31;;;;;;;4.25;2.45;;;;;;;26.27;69.56;96815.13;4952589;28;20141;-74
2022/07/23 11:16:10;;;;;;;4.28;2.80;;;;;;;26.41;76.69;96808.56;4959587;28;20791;-74
2022/07/23 11:18:39;;;;;;;4.43;2.42;;;;;;;26.71;65.42;96823.66;4969749;28;20506;-74
2022/07/23 11:21:36;;;;;;;7.07;3.00;;;;;;;27.84;50.13;96813.66;4968234;28;20093;-74
2022/07/23 11:24:09;;;;;;;4.20;2.38;;;;;;;28.75;44.10;96811.66;4952010;28;20059;-74
2022/07/23 11:26:41;;;;;;;5.72;2.83;;;;;;;29.20;44.59;96807.59;4971685;28;20049;-74
2022/07/23 11:29:28;;;;;;;3.70;2.40;;;;;;;31.30;40.95;96803.03;4969328;28;20042;-74
2022/07/23 11:31:59;;;;;;;7.63;2.40;;;;;;;32.61;35.53;96799.28;4951607;28;20058;-74